createdAt,value
2018-12-21T10:31:48.079Z,58.60
2018-12-21T10:34:37.211Z,59.00
2018-12-21T10:37:36.530Z,58.70
2018-12-21T10:40:27.179Z,56.80
2018-12-21T10:43:16.704Z,56.10
2018-12-21T10:46:06.157Z,55.70
2018-12-21T10:48:55.915Z,55.00
2018-12-21T10:51:45.428Z,54.50
2018-12-21T10:54:36.205Z,54.30
2018-12-21T10:57:25.223Z,53.80
2018-12-21T11:00:17.590Z,53.60
2018-12-21T11:03:09.093Z,53.50
2018-12-21T11:06:00.256Z,53.00
2018-12-21T11:10:41.873Z,52.30
2018-12-21T11:13:31.616Z,52.70
2018-12-21T11:16:29.079Z,52.80
2018-12-21T11:19:19.918Z,52.10
2018-12-21T11:22:12.605Z,52.00
2018-12-21T11:25:05.999Z,51.80
2018-12-21T11:27:59.506Z,51.20
2018-12-21T11:30:49.265Z,51.60
2018-12-21T11:33:38.695Z,52.10
2018-12-21T11:36:30.558Z,52.00
2018-12-21T11:39:21.983Z,52.20
2018-12-21T11:42:10.334Z,52.60
2018-12-21T11:44:59.448Z,52.50
2018-12-21T11:47:48.454Z,52.50
2018-12-21T11:50:37.907Z,52.80
2018-12-21T11:53:27.537Z,52.80
2018-12-21T11:56:17.687Z,52.80
2018-12-21T11:59:07.474Z,52.60
2018-12-21T12:01:56.692Z,52.80
2018-12-21T12:04:45.815Z,53.30
2018-12-21T12:07:34.746Z,53.10
2018-12-21T12:10:24.997Z,52.70
2018-12-21T12:13:15.825Z,52.40
2018-12-21T12:16:07.624Z,52.10
2018-12-21T12:18:56.083Z,52.80
2018-12-21T12:21:45.510Z,53.00
2018-12-21T12:24:33.778Z,53.50
2018-12-21T12:27:22.312Z,53.50
2018-12-21T12:30:11.710Z,53.70
2018-12-21T12:33:02.043Z,53.50
2018-12-21T12:35:50.998Z,53.60
2018-12-21T12:38:40.527Z,53.20
2018-12-21T12:41:33.905Z,53.30
2018-12-21T12:44:22.437Z,53.50
2018-12-21T12:47:10.891Z,53.60
2018-12-21T12:50:00.302Z,53.60
2018-12-21T12:52:49.943Z,53.20
2018-12-21T12:55:40.126Z,53.20
2018-12-21T12:58:29.145Z,53.10
2018-12-21T13:01:18.591Z,53.90
2018-12-21T13:06:46.824Z,53.50
2018-12-21T13:09:35.471Z,53.90
2018-12-21T13:12:28.060Z,53.20
2018-12-21T13:15:19.089Z,52.70
2018-12-21T13:18:09.666Z,52.90
2018-12-21T13:20:58.328Z,53.00
2018-12-21T13:23:48.952Z,53.50
2018-12-21T13:26:40.244Z,53.00
2018-12-21T13:29:30.057Z,53.00
2018-12-21T13:32:29.506Z,53.00
2018-12-21T13:35:20.385Z,53.40
2018-12-21T13:38:10.261Z,53.80
2018-12-21T13:41:00.659Z,54.10
2018-12-21T13:43:50.596Z,54.30
2018-12-21T13:46:42.444Z,54.50
2018-12-21T13:49:33.393Z,54.30
2018-12-21T13:52:23.543Z,54.30
2018-12-21T13:55:20.022Z,54.00
2018-12-21T13:58:04.519Z,54.20
